createdAt,value
2019-01-31T00:00:39.832Z,27.03
2019-01-31T00:03:32.167Z,27.07
2019-01-31T00:06:15.708Z,27.05
2019-01-31T00:08:47.198Z,27.07
2019-01-31T00:11:30.808Z,27.02
2019-01-31T00:14:35.618Z,27.01
2019-01-31T00:17:31.324Z,27.03
2019-01-31T00:20:02.817Z,27.06
2019-01-31T00:22:52.683Z,27.02
2019-01-31T00:25:46.420Z,27.04
2019-01-31T00:28:34.462Z,27.02
2019-01-31T00:31:25.529Z,27.08
2019-01-31T00:34:13.640Z,27.06
2019-01-31T00:36:57.203Z,27.04
2019-01-31T00:39:34.187Z,26.96
2019-01-31T00:42:17.813Z,27.03
2019-01-31T00:45:08.858Z,26.96
2019-01-31T00:48:12.113Z,26.90
2019-01-31T00:50:49.430Z,26.92
2019-01-31T00:53:23.538Z,26.94
2019-01-31T00:55:57.777Z,26.92
2019-01-31T00:58:41.093Z,26.89
2019-01-31T01:01:21.420Z,26.94
2019-01-31T01:03:58.671Z,26.95
2019-01-31T01:06:46.637Z,26.92
2019-01-31T01:09:29.862Z,26.90
2019-01-31T01:12:09.698Z,26.93
2019-01-31T01:14:49.889Z,26.94
2019-01-31T01:17:21.377Z,26.91
2019-01-31T01:19:52.843Z,26.88
2019-01-31T01:22:30.440Z,26.92
2019-01-31T01:25:18.669Z,26.89
2019-01-31T01:28:12.944Z,26.86
2019-01-31T01:31:17.602Z,26.88
2019-01-31T01:34:16.242Z,26.93
2019-01-31T01:36:50.453Z,26.90
2019-01-31T01:39:30.828Z,26.91
2019-01-31T01:42:14.039Z,26.94
2019-01-31T01:45:17.425Z,26.90
2019-01-31T01:47:51.634Z,26.90
2019-01-31T01:50:41.014Z,26.90
2019-01-31T01:53:15.073Z,26.88
2019-01-31T01:55:52.418Z,26.84
2019-01-31T01:58:26.973Z,26.84
2019-01-31T02:01:03.643Z,26.80
2019-01-31T02:03:51.623Z,26.78
2019-01-31T02:06:25.705Z,26.80
2019-01-31T02:09:29.736Z,26.79
2019-01-31T02:11:58.655Z,26.81
2019-01-31T02:14:45.177Z,26.79
2019-01-31T02:17:22.609Z,26.76
2019-01-31T02:20:27.514Z,26.72
2019-01-31T02:23:22.640Z,26.66
2019-01-31T02:26:12.126Z,26.71
2019-01-31T02:28:43.638Z,26.74
2019-01-31T02:31:40.945Z,26.71
2019-01-31T02:34:15.204Z,26.70
2019-01-31T02:36:49.193Z,26.60
2019-01-31T02:39:43.244Z,26.64
2019-01-31T02:42:30.170Z,26.65
2019-01-31T02:45:04.457Z,26.64
2019-01-31T02:47:55.543Z,26.61
2019-01-31T02:50:35.522Z,26.62
2019-01-31T02:53:09.965Z,26.65
2019-01-31T02:56:00.791Z,26.68
2019-01-31T02:58:51.410Z,26.71
2019-01-31T03:01:25.581Z,26.62
2019-01-31T03:03:59.681Z,26.65
2019-01-31T03:06:50.424Z,26.69
2019-01-31T03:09:30.563Z,26.66
2019-01-31T03:12:17.176Z,26.70
2019-01-31T03:14:48.492Z,26.64
2019-01-31T03:17:25.725Z,26.64
2019-01-31T03:19:57.187Z,26.64
2019-01-31T03:22:28.637Z,26.64
2019-01-31T03:25:05.681Z,26.60
2019-01-31T03:27:55.100Z,26.63
2019-01-31T03:30:59.687Z,26.60
2019-01-31T03:33:36.963Z,26.62
2019-01-31T03:36:28.869Z,26.57
2019-01-31T03:39:03.063Z,26.56
2019-01-31T03:41:49.614Z,26.65
2019-01-31T03:44:29.642Z,26.52
2019-01-31T03:47:03.884Z,26.56
2019-01-31T03:49:44.577Z,26.58
2019-01-31T03:52:28.020Z,26.58
2019-01-31T03:55:15.909Z,26.46
2019-01-31T03:57:53.046Z,26.44
2019-01-31T04:00:39.674Z,26.52
2019-01-31T04:03:11.147Z,26.56
2019-01-31T04:05:42.843Z,26.56
2019-01-31T04:08:11.065Z,26.50
2019-01-31T04:10:39.267Z,26.55
2019-01-31T04:13:07.496Z,26.50
2019-01-31T04:15:35.880Z,26.46
2019-01-31T04:18:04.449Z,26.52
2019-01-31T04:20:32.668Z,26.52
2019-01-31T04:23:00.892Z,26.44
2019-01-31T04:25:29.116Z,26.48
2019-01-31T04:27:57.430Z,26.49
2019-01-31T04:30:25.620Z,26.43
2019-01-31T04:32:53.820Z,26.46
2019-01-31T04:35:22.041Z,26.45
2019-01-31T04:37:50.274Z,26.41
2019-01-31T04:40:30.525Z,26.46
2019-01-31T04:42:48.386Z,26.46
2019-01-31T04:45:16.586Z,26.47
2019-01-31T04:47:44.800Z,26.42
2019-01-31T04:50:14.458Z,26.42
2019-01-31T04:52:42.672Z,26.46
2019-01-31T04:55:11.242Z,26.50
2019-01-31T04:57:39.446Z,26.51
2019-01-31T05:00:16.429Z,26.54
2019-01-31T05:02:44.624Z,26.56
2019-01-31T05:05:12.848Z,26.62
2019-01-31T05:07:41.079Z,26.47
2019-01-31T05:10:13.294Z,26.38
2019-01-31T05:12:41.486Z,26.39
2019-01-31T05:15:11.952Z,26.38
2019-01-31T05:17:40.136Z,26.33
2019-01-31T05:20:11.454Z,26.33
2019-01-31T05:22:39.649Z,26.30
2019-01-31T05:25:09.884Z,26.24
2019-01-31T05:27:38.084Z,26.26
2019-01-31T05:30:09.030Z,26.25
2019-01-31T05:32:37.254Z,26.20
2019-01-31T05:35:06.722Z,26.13
2019-01-31T05:37:34.943Z,26.27
2019-01-31T05:40:03.406Z,26.30
2019-01-31T05:42:31.616Z,26.31
2019-01-31T05:44:59.844Z,26.35
2019-01-31T05:47:28.053Z,26.34
2019-01-31T05:49:56.293Z,26.29
2019-01-31T05:52:24.499Z,26.35
2019-01-31T05:54:52.724Z,26.30
2019-01-31T05:57:20.935Z,26.28
2019-01-31T05:59:49.157Z,26.30
2019-01-31T06:02:17.366Z,26.31
2019-01-31T06:04:45.604Z,26.29
2019-01-31T06:07:13.836Z,26.31
2019-01-31T06:09:42.062Z,26.29
2019-01-31T06:12:10.293Z,26.29
2019-01-31T06:14:38.502Z,26.23
2019-01-31T06:17:06.742Z,26.34
2019-01-31T06:19:34.938Z,26.36
2019-01-31T06:22:03.158Z,26.35
2019-01-31T06:24:31.377Z,26.32
2019-01-31T06:26:59.610Z,26.34
2019-01-31T06:29:27.838Z,26.37
2019-01-31T06:31:56.040Z,26.41
2019-01-31T06:34:24.270Z,26.36
2019-01-31T06:36:52.476Z,26.38
2019-01-31T06:39:20.708Z,26.38
2019-01-31T06:41:48.937Z,26.36
2019-01-31T06:44:17.142Z,26.39
2019-01-31T06:46:45.330Z,26.43
2019-01-31T06:49:13.560Z,26.45
2019-01-31T06:51:41.767Z,26.47
2019-01-31T06:54:09.985Z,26.46
2019-01-31T06:56:38.190Z,26.52
2019-01-31T06:59:06.423Z,26.47
2019-01-31T07:01:34.621Z,26.47
2019-01-31T07:04:02.827Z,26.49
2019-01-31T07:06:31.059Z,26.49
2019-01-31T07:08:59.269Z,26.51
2019-01-31T07:11:30.060Z,26.55
2019-01-31T07:13:57.431Z,26.55
2019-01-31T07:16:25.644Z,26.52
2019-01-31T07:18:53.951Z,26.52
2019-01-31T07:21:22.141Z,26.54
2019-01-31T07:23:50.341Z,26.58
2019-01-31T07:26:18.568Z,26.61
2019-01-31T07:28:46.793Z,26.59
2019-01-31T07:31:15.019Z,26.63
2019-01-31T07:33:43.228Z,26.63
2019-01-31T07:36:11.461Z,26.62
2019-01-31T07:38:39.665Z,26.60
2019-01-31T07:41:07.905Z,26.90
2019-01-31T07:43:36.112Z,26.87
2019-01-31T07:46:04.515Z,26.83
2019-01-31T07:48:32.707Z,26.97
2019-01-31T07:51:00.935Z,26.96
2019-01-31T07:53:29.130Z,27.00
2019-01-31T07:55:57.345Z,26.96
2019-01-31T07:58:25.640Z,27.00
2019-01-31T08:00:53.875Z,27.00
2019-01-31T08:03:22.064Z,27.00
2019-01-31T08:05:50.276Z,27.09
2019-01-31T08:08:18.507Z,27.10
2019-01-31T08:10:46.834Z,27.08
2019-01-31T08:13:15.018Z,27.15
2019-01-31T08:15:43.236Z,27.16
2019-01-31T08:18:11.449Z,27.17
2019-01-31T08:20:39.666Z,27.22
2019-01-31T08:23:07.900Z,27.24
2019-01-31T08:25:36.130Z,27.25
2019-01-31T08:28:04.907Z,27.33
2019-01-31T08:30:41.786Z,27.28
2019-01-31T08:33:09.999Z,27.33
2019-01-31T08:35:38.246Z,27.39
2019-01-31T08:38:06.492Z,27.84
2019-01-31T08:40:34.718Z,27.66
2019-01-31T08:43:02.927Z,27.57
2019-01-31T08:45:31.148Z,27.53
2019-01-31T08:47:59.355Z,27.51
2019-01-31T08:50:29.125Z,27.50
2019-01-31T08:52:57.334Z,27.54
2019-01-31T08:55:25.558Z,27.53
2019-01-31T08:57:53.775Z,27.56
2019-01-31T09:00:24.616Z,27.58
2019-01-31T09:02:52.805Z,28.67
2019-01-31T09:05:21.017Z,27.70
2019-01-31T09:07:49.243Z,27.66
2019-01-31T09:10:28.565Z,27.60
2019-01-31T09:12:57.582Z,27.58
2019-01-31T09:15:26.344Z,27.65
2019-01-31T09:17:54.541Z,27.64
2019-01-31T09:20:25.893Z,27.65
2019-01-31T09:23:03.400Z,27.63
2019-01-31T09:25:49.937Z,27.66
2019-01-31T09:28:24.352Z,27.69
2019-01-31T09:30:58.518Z,27.75
2019-01-31T09:33:41.661Z,27.75
2019-01-31T09:36:18.826Z,27.81
2019-01-31T09:39:19.143Z,27.67
2019-01-31T09:41:53.313Z,27.69
2019-01-31T09:44:41.314Z,27.67
2019-01-31T09:47:33.748Z,27.70
2019-01-31T09:50:11.145Z,27.78
2019-01-31T09:52:51.207Z,27.66
2019-01-31T09:55:43.718Z,27.58
2019-01-31T09:58:23.953Z,27.63
2019-01-31T10:01:18.171Z,27.69
2019-01-31T10:03:49.628Z,27.55
2019-01-31T10:06:23.835Z,27.55
2019-01-31T10:09:01.247Z,27.62
2019-01-31T10:11:35.446Z,27.63
2019-01-31T10:14:34.371Z,27.75
2019-01-31T10:17:05.857Z,27.56
2019-01-31T10:19:43.328Z,27.53
2019-01-31T10:22:14.763Z,27.57
2019-01-31T10:24:58.197Z,27.65
2019-01-31T10:27:46.418Z,27.58
2019-01-31T10:30:26.530Z,27.66
2019-01-31T10:33:16.979Z,27.64
2019-01-31T10:36:12.668Z,27.65
2019-01-31T10:39:04.796Z,27.58
2019-01-31T10:41:41.971Z,27.51
2019-01-31T10:44:28.658Z,27.51
2019-01-31T10:47:12.197Z,27.51
2019-01-31T10:49:52.335Z,27.56
2019-01-31T10:52:23.827Z,27.55
2019-01-31T10:54:58.062Z,27.49
2019-01-31T10:58:03.075Z,27.55
2019-01-31T11:00:34.542Z,27.53
2019-01-31T11:03:28.804Z,27.50
2019-01-31T11:06:02.986Z,27.52
2019-01-31T11:08:40.201Z,27.49
2019-01-31T11:11:11.680Z,27.54
2019-01-31T11:13:48.915Z,27.52
2019-01-31T11:16:35.481Z,27.52
2019-01-31T11:19:12.571Z,27.54
2019-01-31T11:21:49.025Z,27.63
2019-01-31T11:24:20.515Z,27.65
2019-01-31T11:27:08.756Z,27.62
2019-01-31T11:29:58.530Z,27.69
2019-01-31T11:32:46.768Z,27.65
2019-01-31T11:35:43.981Z,27.73
2019-01-31T11:38:17.975Z,27.66
2019-01-31T11:40:58.162Z,27.62
2019-01-31T11:44:04.463Z,27.61
2019-01-31T11:46:50.707Z,27.73
2019-01-31T11:49:22.176Z,27.73
2019-01-31T11:51:53.726Z,27.80
2019-01-31T11:54:34.037Z,27.73
2019-01-31T11:57:08.342Z,27.73
2019-01-31T11:59:36.529Z,27.73
2019-01-31T12:02:05.096Z,27.67
2019-01-31T12:04:33.313Z,27.71
2019-01-31T12:07:01.620Z,27.67
2019-01-31T12:09:29.858Z,27.64
2019-01-31T12:11:58.050Z,27.63
2019-01-31T12:14:26.284Z,27.64
2019-01-31T12:16:54.476Z,27.63
2019-01-31T12:19:22.877Z,27.63
2019-01-31T12:21:51.230Z,27.65
2019-01-31T12:24:19.455Z,27.65
2019-01-31T12:26:47.659Z,27.63
2019-01-31T12:29:15.886Z,27.71
2019-01-31T12:31:44.086Z,27.68
2019-01-31T12:34:12.305Z,27.63
2019-01-31T12:36:40.534Z,27.68
2019-01-31T12:39:09.162Z,27.66
2019-01-31T12:41:37.376Z,27.68
2019-01-31T12:44:05.646Z,27.65
2019-01-31T12:46:33.861Z,27.67
2019-01-31T12:49:02.066Z,27.71
2019-01-31T12:51:30.387Z,27.71
2019-01-31T12:53:58.564Z,27.76
2019-01-31T12:56:26.799Z,27.76
2019-01-31T12:58:54.996Z,27.75
2019-01-31T13:01:23.198Z,27.98
2019-01-31T13:03:51.405Z,27.82
2019-01-31T13:06:19.630Z,27.88
2019-01-31T13:08:47.854Z,27.87
2019-01-31T13:11:16.065Z,27.89
2019-01-31T13:13:46.016Z,27.97
2019-01-31T13:16:14.216Z,28.02
2019-01-31T13:18:42.419Z,28.05
2019-01-31T13:21:10.640Z,28.53
2019-01-31T13:23:38.858Z,28.11
2019-01-31T13:26:07.076Z,28.21
2019-01-31T13:28:35.312Z,28.21
2019-01-31T13:31:03.507Z,28.30
2019-01-31T13:33:32.295Z,28.28
2019-01-31T13:36:00.486Z,28.18
2019-01-31T13:38:28.707Z,28.34
2019-01-31T13:40:56.914Z,28.13
2019-01-31T13:43:25.127Z,28.11
2019-01-31T13:45:53.331Z,28.00
2019-01-31T13:48:21.559Z,28.04
2019-01-31T13:50:49.765Z,28.01
2019-01-31T13:53:17.979Z,28.08
2019-01-31T13:55:46.203Z,28.00
2019-01-31T13:58:14.430Z,28.21
2019-01-31T14:00:42.634Z,28.11
2019-01-31T14:03:10.856Z,28.06
2019-01-31T14:05:39.052Z,28.06
2019-01-31T14:08:07.703Z,27.96
2019-01-31T14:10:37.375Z,28.01
2019-01-31T14:13:05.851Z,28.03
2019-01-31T14:15:34.916Z,28.05
2019-01-31T14:18:03.187Z,28.14
2019-01-31T14:20:31.416Z,28.63
2019-01-31T14:22:59.623Z,28.24
2019-01-31T14:25:27.835Z,28.49
2019-01-31T14:27:56.056Z,28.76
2019-01-31T14:30:27.241Z,28.37
2019-01-31T14:32:55.700Z,28.68
2019-01-31T14:35:23.930Z,28.78
2019-01-31T14:37:52.134Z,28.91
2019-01-31T14:40:20.343Z,28.42
2019-01-31T14:42:48.548Z,28.41
2019-01-31T14:45:17.614Z,28.66
2019-01-31T14:47:45.828Z,28.69
2019-01-31T14:50:19.763Z,28.67
2019-01-31T14:52:48.003Z,28.65
2019-01-31T14:55:16.215Z,28.87
2019-01-31T14:57:44.397Z,28.44
2019-01-31T15:00:27.949Z,28.37
2019-01-31T15:02:56.140Z,28.18
2019-01-31T15:05:24.370Z,28.03
2019-01-31T15:07:52.596Z,28.06
2019-01-31T15:10:28.873Z,28.44
2019-01-31T15:12:57.098Z,28.60
2019-01-31T15:15:25.323Z,28.48
2019-01-31T15:17:53.558Z,28.53
2019-01-31T15:20:37.646Z,28.74
2019-01-31T15:23:00.519Z,29.00
2019-01-31T15:25:28.737Z,28.63
2019-01-31T15:27:56.931Z,28.24
2019-01-31T15:30:27.942Z,28.34
2019-01-31T15:32:56.157Z,28.14
2019-01-31T15:35:24.387Z,28.32
2019-01-31T15:37:52.578Z,28.29
2019-01-31T15:40:26.587Z,28.13
2019-01-31T15:42:54.814Z,27.98
2019-01-31T15:45:23.050Z,27.93
2019-01-31T15:47:51.289Z,27.99
2019-01-31T15:50:21.125Z,27.86
2019-01-31T15:52:49.350Z,27.88
2019-01-31T15:55:22.973Z,27.87
2019-01-31T15:57:51.162Z,27.82
2019-01-31T16:00:38.690Z,27.77
2019-01-31T16:03:08.510Z,27.80
2019-01-31T16:05:36.739Z,27.82
2019-01-31T16:08:05.306Z,27.74
2019-01-31T16:10:33.696Z,27.82
2019-01-31T16:13:02.006Z,27.83
2019-01-31T16:15:30.264Z,27.83
2019-01-31T16:17:58.470Z,27.77
2019-01-31T16:20:26.681Z,27.76
2019-01-31T16:22:54.898Z,27.78
2019-01-31T16:25:23.221Z,27.74
2019-01-31T16:27:51.423Z,27.73
2019-01-31T16:30:20.762Z,27.71
2019-01-31T16:32:49.038Z,27.67
2019-01-31T16:35:18.796Z,27.61
2019-01-31T16:37:48.159Z,27.66
2019-01-31T16:40:17.608Z,27.62
2019-01-31T16:42:46.291Z,27.59
2019-01-31T16:45:16.686Z,27.53
2019-01-31T16:47:44.890Z,27.48
2019-01-31T16:50:16.027Z,27.45
2019-01-31T16:52:44.282Z,27.46
2019-01-31T16:55:17.680Z,27.52
2019-01-31T16:57:45.943Z,27.50
2019-01-31T17:00:17.084Z,27.41
2019-01-31T17:02:45.328Z,27.36
2019-01-31T17:05:16.364Z,27.35
2019-01-31T17:07:44.575Z,27.32
2019-01-31T17:10:12.950Z,27.29
2019-01-31T17:12:41.288Z,27.28
2019-01-31T17:15:18.271Z,27.26
2019-01-31T17:17:42.347Z,27.24
2019-01-31T17:20:13.971Z,27.25
2019-01-31T17:22:42.171Z,27.25
2019-01-31T17:25:12.355Z,27.24
2019-01-31T17:27:40.579Z,27.25
2019-01-31T17:30:14.845Z,27.22
2019-01-31T17:32:43.043Z,27.22
2019-01-31T17:35:11.243Z,27.26
2019-01-31T17:37:39.497Z,27.35
2019-01-31T17:40:10.973Z,27.33
2019-01-31T17:42:39.175Z,27.33
2019-01-31T17:45:10.918Z,27.34
2019-01-31T17:47:39.125Z,27.39
2019-01-31T17:50:10.317Z,27.36
2019-01-31T17:52:38.542Z,27.34
2019-01-31T17:55:09.680Z,27.36
2019-01-31T17:57:37.910Z,27.30
2019-01-31T18:00:11.999Z,27.32
2019-01-31T18:02:45.456Z,27.30
2019-01-31T18:05:12.412Z,27.28
2019-01-31T18:07:40.641Z,27.26
2019-01-31T18:10:14.996Z,27.27
2019-01-31T18:12:43.222Z,27.24
2019-01-31T18:15:12.079Z,27.23
2019-01-31T18:17:40.373Z,27.21
2019-01-31T18:20:11.863Z,27.25
2019-01-31T18:22:40.080Z,27.19
2019-01-31T18:25:09.230Z,27.21
2019-01-31T18:27:37.463Z,27.22
2019-01-31T18:30:17.624Z,27.17
2019-01-31T18:32:45.843Z,27.21
2019-01-31T18:35:14.026Z,27.21
2019-01-31T18:37:42.265Z,27.17
2019-01-31T18:40:13.883Z,27.16
2019-01-31T18:42:42.092Z,27.15
2019-01-31T18:45:13.679Z,27.10
2019-01-31T18:47:41.925Z,27.14
2019-01-31T18:50:13.262Z,27.14
2019-01-31T18:52:41.485Z,27.12
2019-01-31T18:55:10.063Z,27.08
2019-01-31T18:57:38.276Z,27.12
2019-01-31T19:00:22.664Z,27.00
2019-01-31T19:02:50.880Z,26.99
2019-01-31T19:05:19.103Z,27.00
2019-01-31T19:07:47.332Z,26.98
2019-01-31T19:10:16.073Z,26.95
2019-01-31T19:12:44.289Z,27.06
2019-01-31T19:15:17.608Z,27.06
2019-01-31T19:17:45.825Z,27.11
2019-01-31T19:20:17.435Z,27.15
2019-01-31T19:22:45.653Z,27.28
2019-01-31T19:25:14.705Z,26.81
2019-01-31T19:27:43.127Z,26.13
2019-01-31T19:30:17.287Z,26.96
2019-01-31T19:32:45.731Z,26.91
2019-01-31T19:35:14.136Z,27.13
2019-01-31T19:37:42.568Z,27.35
2019-01-31T19:40:16.777Z,27.38
2019-01-31T19:42:45.255Z,27.41
2019-01-31T19:45:19.946Z,27.47
2019-01-31T19:47:48.366Z,27.67
2019-01-31T19:50:17.211Z,27.79
2019-01-31T19:52:45.694Z,27.90
2019-01-31T19:55:14.209Z,28.06
2019-01-31T19:57:42.802Z,28.07
2019-01-31T20:00:16.048Z,28.17
2019-01-31T20:02:44.550Z,28.13
2019-01-31T20:05:13.713Z,28.33
2019-01-31T20:07:42.482Z,28.24
2019-01-31T20:10:14.138Z,28.41
2019-01-31T20:12:42.554Z,28.28
2019-01-31T20:15:12.503Z,28.32
2019-01-31T20:17:41.014Z,28.36
2019-01-31T20:20:16.983Z,28.46
2019-01-31T20:22:45.595Z,28.53
2019-01-31T20:25:14.531Z,28.37
2019-01-31T20:27:43.233Z,28.44
2019-01-31T20:30:28.796Z,28.46
2019-01-31T20:32:58.153Z,28.54
2019-01-31T20:35:26.726Z,28.50
2019-01-31T20:37:55.196Z,28.70
2019-01-31T20:40:35.283Z,28.59
2019-01-31T20:43:04.738Z,28.71
2019-01-31T20:45:33.153Z,28.56
2019-01-31T20:48:01.599Z,28.65
2019-01-31T20:50:32.467Z,28.74
2019-01-31T20:53:00.964Z,28.74
2019-01-31T20:55:29.546Z,28.59
2019-01-31T20:57:58.098Z,28.97
2019-01-31T21:00:33.795Z,28.90
2019-01-31T21:03:02.877Z,28.74
2019-01-31T21:05:31.407Z,28.93
2019-01-31T21:08:00.097Z,28.80
2019-01-31T21:10:28.527Z,28.82
2019-01-31T21:12:57.162Z,28.91
2019-01-31T21:15:26.289Z,28.91
2019-01-31T21:17:55.078Z,28.77
2019-01-31T21:20:26.498Z,28.83
2019-01-31T21:22:55.579Z,28.77
2019-01-31T21:25:24.225Z,28.72
2019-01-31T21:27:52.714Z,28.72
2019-01-31T21:30:30.270Z,29.09
2019-01-31T21:32:58.744Z,28.71
2019-01-31T21:35:27.898Z,28.97
2019-01-31T21:37:56.667Z,29.07
2019-01-31T21:40:27.415Z,28.73
2019-01-31T21:42:56.064Z,28.87
2019-01-31T21:45:25.358Z,29.16
2019-01-31T21:47:53.786Z,29.07
2019-01-31T21:50:29.864Z,29.03
2019-01-31T21:52:58.272Z,29.20
2019-01-31T21:55:27.119Z,29.08
2019-01-31T21:57:55.797Z,29.04
2019-01-31T22:00:30.034Z,29.07
2019-01-31T22:02:58.712Z,28.59
2019-01-31T22:05:27.266Z,28.44
2019-01-31T22:07:55.981Z,28.81
2019-01-31T22:10:24.720Z,28.90
2019-01-31T22:12:53.151Z,29.15
2019-01-31T22:15:26.764Z,29.15
2019-01-31T22:17:59.811Z,29.12
2019-01-31T22:20:25.649Z,28.96
2019-01-31T22:22:54.330Z,29.41
2019-01-31T22:25:24.633Z,29.07
2019-01-31T22:27:53.100Z,29.04
2019-01-31T22:30:30.432Z,28.89
2019-01-31T22:32:58.941Z,28.89
2019-01-31T22:35:27.429Z,29.22
2019-01-31T22:37:55.926Z,28.99
2019-01-31T22:40:24.344Z,28.38
2019-01-31T22:42:52.774Z,27.91
2019-01-31T22:45:24.891Z,28.44
2019-01-31T22:47:53.796Z,28.78
2019-01-31T22:50:23.755Z,28.64
2019-01-31T22:52:52.712Z,28.91
2019-01-31T22:55:26.425Z,28.76
2019-01-31T22:57:54.943Z,29.00
2019-01-31T23:00:52.298Z,28.99
2019-01-31T23:03:20.945Z,29.03
2019-01-31T23:05:49.375Z,28.83
2019-01-31T23:08:17.793Z,28.97
2019-01-31T23:10:46.236Z,29.16
2019-01-31T23:13:14.730Z,29.04
2019-01-31T23:15:43.136Z,28.95
2019-01-31T23:18:11.640Z,28.95
2019-01-31T23:20:40.076Z,29.06
2019-01-31T23:23:08.513Z,29.02
2019-01-31T23:25:40.256Z,29.07
2019-01-31T23:28:07.087Z,29.34
2019-01-31T23:30:35.682Z,29.31
2019-01-31T23:33:04.272Z,29.17
2019-01-31T23:35:32.682Z,29.52
2019-01-31T23:38:01.123Z,29.39
2019-01-31T23:40:29.614Z,29.39
2019-01-31T23:42:58.022Z,29.28
2019-01-31T23:45:26.442Z,29.21
2019-01-31T23:47:54.976Z,29.25
2019-01-31T23:50:23.415Z,29.30
2019-01-31T23:52:51.845Z,29.29
2019-01-31T23:55:20.556Z,29.25
2019-01-31T23:57:48.966Z,29.40
